createdAt,value
2023-06-13T00:01:57.376Z,99.90
2023-06-13T00:04:30.310Z,99.90
2023-06-13T00:07:00.381Z,99.90
2023-06-13T00:09:31.809Z,99.90
2023-06-13T00:11:59.063Z,99.90
2023-06-13T00:14:27.287Z,99.90
2023-06-13T00:16:57.395Z,99.90
2023-06-13T00:19:25.567Z,99.90
2023-06-13T00:21:52.725Z,99.90
2023-06-13T00:24:20.792Z,99.90
2023-06-13T00:26:47.968Z,99.90
2023-06-13T00:29:15.089Z,99.90
2023-06-13T00:31:45.255Z,99.80
2023-06-13T00:34:13.560Z,99.50
2023-06-13T00:36:45.229Z,99.20
2023-06-13T00:39:15.463Z,99.00
2023-06-13T00:41:45.635Z,98.80
2023-06-13T00:44:12.815Z,98.50
2023-06-13T00:46:42.581Z,98.40
2023-06-13T00:49:11.918Z,98.10
2023-06-13T00:51:42.665Z,97.90
2023-06-13T00:54:14.735Z,97.60
2023-06-13T00:56:45.728Z,97.30
2023-06-13T00:59:15.182Z,97.30
2023-06-13T01:01:48.685Z,97.20
2023-06-13T01:04:22.376Z,97.10
2023-06-13T01:06:51.615Z,96.90
2023-06-13T01:09:23.259Z,96.90
2023-06-13T01:12:18.985Z,96.80
2023-06-13T01:14:59.373Z,96.60
2023-06-13T01:17:34.942Z,96.50
2023-06-13T01:20:12.696Z,96.40
2023-06-13T01:23:04.123Z,96.40
2023-06-13T01:25:53.872Z,96.40
2023-06-13T01:28:24.183Z,96.20
2023-06-13T01:30:54.339Z,96.20
2023-06-13T01:33:25.263Z,96.20
2023-06-13T01:35:55.749Z,96.20
2023-06-13T01:38:24.203Z,96.10
2023-06-13T01:40:54.358Z,96.10
2023-06-13T01:43:21.331Z,96.00
2023-06-13T01:45:50.387Z,95.90
2023-06-13T01:48:37.824Z,95.90
2023-06-13T01:51:17.551Z,96.00
2023-06-13T01:53:55.941Z,96.00
2023-06-13T01:56:28.924Z,96.00
2023-06-13T01:59:00.753Z,96.10
2023-06-13T02:01:29.977Z,96.20
2023-06-13T02:04:06.773Z,96.30
2023-06-13T02:06:34.802Z,96.30
2023-06-13T02:09:03.177Z,96.40
2023-06-13T02:11:31.202Z,96.50
2023-06-13T02:13:58.316Z,96.60
2023-06-13T02:16:26.863Z,96.70
2023-06-13T02:18:54.398Z,96.80
2023-06-13T02:21:23.542Z,96.80
2023-06-13T02:23:50.623Z,96.90
2023-06-13T02:26:18.359Z,97.10
2023-06-13T02:28:49.151Z,97.20
2023-06-13T02:31:19.224Z,97.30
2023-06-13T02:33:47.271Z,97.40
2023-06-13T02:36:17.428Z,97.50
2023-06-13T02:38:45.169Z,97.60
2023-06-13T02:41:13.028Z,97.60
2023-06-13T02:43:43.119Z,97.60
2023-06-13T02:46:12.025Z,97.70
2023-06-13T02:48:42.239Z,97.70
2023-06-13T02:51:11.331Z,97.70
2023-06-13T02:53:38.787Z,97.70
2023-06-13T02:56:06.112Z,97.80
2023-06-13T02:58:33.165Z,97.80
2023-06-13T03:01:00.957Z,97.90
2023-06-13T03:03:48.810Z,97.90
2023-06-13T03:06:20.469Z,98.00
2023-06-13T03:08:50.242Z,98.00
2023-06-13T03:11:19.598Z,98.00
2023-06-13T03:13:49.676Z,98.00
2023-06-13T03:16:23.179Z,98.00
2023-06-13T03:18:50.257Z,98.00
2023-06-13T03:21:18.359Z,98.00
2023-06-13T03:23:45.469Z,98.00
2023-06-13T03:26:25.687Z,98.00
2023-06-13T03:28:52.824Z,98.00
2023-06-13T03:31:23.002Z,98.10
2023-06-13T03:33:53.183Z,98.10
2023-06-13T03:36:21.168Z,98.10
2023-06-13T03:38:48.188Z,98.10
2023-06-13T03:41:18.292Z,98.20
2023-06-13T03:43:48.463Z,98.20
2023-06-13T03:46:17.485Z,98.40
2023-06-13T03:48:47.832Z,98.50
2023-06-13T03:51:17.007Z,98.60
2023-06-13T03:53:46.033Z,98.60
2023-06-13T03:56:16.233Z,98.60
2023-06-13T03:58:46.508Z,98.60
2023-06-13T04:01:18.152Z,98.70
2023-06-13T04:03:52.420Z,98.70
2023-06-13T04:06:23.178Z,98.80
2023-06-13T04:08:54.356Z,98.70
2023-06-13T04:11:21.362Z,98.70
2023-06-13T04:13:48.328Z,98.60
2023-06-13T04:16:16.341Z,98.50
2023-06-13T04:18:44.562Z,98.50
2023-06-13T04:21:13.993Z,98.50
2023-06-13T04:23:41.061Z,98.50
2023-06-13T04:26:08.806Z,98.60
2023-06-13T04:28:39.415Z,98.50
2023-06-13T04:31:06.376Z,98.50
2023-06-13T04:33:35.744Z,98.50
2023-06-13T04:36:06.972Z,98.50
2023-06-13T04:38:36.947Z,98.50
2023-06-13T04:41:04.038Z,98.50
2023-06-13T04:43:32.949Z,98.40
2023-06-13T04:46:04.768Z,98.40
2023-06-13T04:48:37.239Z,98.40
2023-06-13T04:51:10.646Z,98.40
2023-06-13T04:53:41.107Z,98.40
2023-06-13T04:56:10.118Z,98.30
2023-06-13T04:58:38.202Z,98.30
2023-06-13T05:01:09.241Z,98.30
2023-06-13T05:03:39.002Z,98.20
2023-06-13T05:06:08.411Z,98.30
2023-06-13T05:08:36.401Z,98.30
2023-06-13T05:11:04.413Z,98.20
2023-06-13T05:13:34.467Z,98.20
2023-06-13T05:16:05.727Z,98.10
2023-06-13T05:18:34.889Z,98.00
2023-06-13T05:21:04.225Z,98.00
2023-06-13T05:23:45.938Z,98.00
2023-06-13T05:26:19.020Z,98.00
2023-06-13T05:28:47.620Z,98.00
2023-06-13T05:31:17.988Z,98.00
2023-06-13T05:33:50.071Z,98.00
2023-06-13T05:36:18.884Z,98.10
2023-06-13T05:38:46.700Z,98.10
2023-06-13T05:41:13.652Z,98.30
2023-06-13T05:43:42.727Z,98.20
2023-06-13T05:46:09.765Z,98.20
2023-06-13T05:48:36.775Z,98.10
2023-06-13T05:51:06.507Z,98.10
2023-06-13T05:53:34.467Z,98.10
2023-06-13T05:56:01.600Z,98.10
2023-06-13T05:58:35.710Z,98.10
2023-06-13T06:01:05.076Z,98.00
2023-06-13T06:03:33.318Z,98.10
2023-06-13T06:06:03.783Z,98.10
2023-06-13T06:08:31.847Z,98.10
2023-06-13T06:11:01.958Z,98.10
2023-06-13T06:13:29.150Z,98.20
2023-06-13T06:15:59.215Z,98.20
2023-06-13T06:18:28.283Z,98.20
2023-06-13T06:20:55.408Z,98.10
2023-06-13T06:23:24.643Z,98.10
2023-06-13T06:25:52.439Z,98.10
2023-06-13T06:28:22.538Z,98.00
2023-06-13T06:30:50.695Z,97.90
2023-06-13T06:33:19.995Z,97.80
2023-06-13T06:35:50.063Z,97.70
2023-06-13T06:38:20.619Z,97.30
2023-06-13T06:40:48.658Z,97.10
2023-06-13T06:43:16.900Z,96.80
2023-06-13T06:45:45.976Z,96.80
2023-06-13T06:48:19.572Z,96.60
2023-06-13T06:50:49.758Z,96.70
2023-06-13T06:53:17.804Z,96.60
2023-06-13T06:55:46.341Z,96.50
2023-06-13T06:58:15.474Z,96.50
2023-06-13T07:00:43.571Z,96.20
2023-06-13T07:03:10.777Z,96.10
2023-06-13T07:05:39.852Z,96.10
2023-06-13T07:08:10.031Z,96.10
2023-06-13T07:10:43.110Z,96.00
2023-06-13T07:13:13.263Z,95.60
2023-06-13T07:15:43.328Z,95.60
2023-06-13T07:18:12.440Z,95.70
2023-06-13T07:20:39.401Z,95.60
2023-06-13T07:23:09.523Z,95.30
2023-06-13T07:25:36.789Z,95.00
2023-06-13T07:28:04.948Z,94.10
2023-06-13T07:30:35.178Z,93.90
2023-06-13T07:33:02.246Z,93.40
2023-06-13T07:35:30.630Z,93.10
2023-06-13T07:37:57.639Z,93.10
2023-06-13T07:40:26.117Z,92.30
2023-06-13T07:42:54.321Z,91.70
2023-06-13T07:45:21.581Z,91.70
2023-06-13T07:47:49.850Z,91.10
2023-06-13T07:50:23.079Z,91.20
2023-06-13T07:52:53.755Z,90.60
2023-06-13T07:55:24.128Z,90.70
2023-06-13T07:57:59.869Z,90.40
2023-06-13T08:00:29.644Z,89.60
2023-06-13T08:02:59.817Z,88.80
2023-06-13T08:05:27.570Z,89.00
2023-06-13T08:07:58.214Z,88.70
2023-06-13T08:10:29.862Z,88.10
2023-06-13T08:13:01.522Z,87.30
2023-06-13T08:15:28.937Z,86.50
2023-06-13T08:17:59.169Z,86.00
2023-06-13T08:20:29.597Z,86.50
2023-06-13T08:22:57.358Z,84.00
2023-06-13T08:25:25.419Z,83.90
2023-06-13T08:27:54.501Z,83.50
2023-06-13T08:30:21.783Z,83.40
2023-06-13T08:32:54.493Z,82.90
2023-06-13T08:35:23.664Z,82.20
2023-06-13T08:37:52.768Z,82.70
2023-06-13T08:40:20.984Z,81.80
2023-06-13T08:42:48.589Z,79.80
2023-06-13T08:45:19.374Z,78.90
2023-06-13T08:47:48.667Z,78.50
2023-06-13T08:50:20.034Z,77.20
2023-06-13T08:52:51.014Z,74.50
2023-06-13T08:57:55.317Z,73.20
2023-06-13T09:00:24.569Z,72.10
2023-06-13T09:02:57.518Z,72.30
2023-06-13T09:05:26.067Z,72.50
2023-06-13T09:08:17.912Z,73.00
2023-06-13T09:10:49.494Z,72.20
2023-06-13T09:13:20.265Z,71.40
2023-06-13T09:15:47.542Z,70.30
2023-06-13T09:18:15.902Z,70.00
2023-06-13T09:20:44.130Z,70.00
2023-06-13T09:23:17.808Z,68.60
2023-06-13T09:25:48.875Z,69.00
2023-06-13T09:28:33.966Z,69.30
2023-06-13T09:31:04.160Z,68.80
2023-06-13T09:33:31.375Z,70.10
2023-06-13T09:36:00.632Z,72.00
2023-06-13T09:38:49.413Z,73.90
2023-06-13T09:41:21.107Z,74.50
2023-06-13T09:43:51.985Z,74.80
2023-06-13T09:46:25.370Z,74.00
2023-06-13T09:48:54.528Z,72.80
2023-06-13T09:51:30.706Z,72.80
2023-06-13T09:54:03.595Z,72.80
2023-06-13T09:56:33.728Z,74.30
2023-06-13T09:59:03.928Z,74.70
2023-06-13T10:01:36.239Z,73.50
2023-06-13T10:04:06.962Z,71.10
2023-06-13T10:06:33.987Z,70.10
2023-06-13T10:09:03.134Z,68.80
2023-06-13T10:11:35.944Z,67.90
2023-06-13T10:14:11.761Z,68.70
2023-06-13T10:17:07.689Z,68.00
2023-06-13T10:19:41.059Z,66.80
2023-06-13T10:22:12.939Z,67.00
2023-06-13T10:24:41.908Z,67.40
2023-06-13T10:27:13.532Z,67.50
2023-06-13T10:30:02.422Z,67.20
2023-06-13T10:32:46.847Z,67.50
2023-06-13T10:35:45.729Z,66.30
2023-06-13T10:38:35.423Z,66.00
2023-06-13T10:41:34.216Z,64.90
2023-06-13T10:44:36.142Z,64.80
2023-06-13T10:47:08.667Z,66.80
2023-06-13T10:49:46.282Z,66.10
2023-06-13T10:52:16.514Z,65.80
2023-06-13T10:54:53.804Z,66.50
2023-06-13T10:57:24.011Z,65.60
2023-06-13T10:59:55.989Z,66.30
2023-06-13T11:02:26.538Z,68.70
2023-06-13T11:04:54.971Z,70.00
2023-06-13T11:07:22.321Z,68.70
2023-06-13T11:10:13.684Z,68.40
2023-06-13T11:12:43.238Z,69.70
2023-06-13T11:15:25.628Z,68.90
2023-06-13T11:18:06.081Z,67.10
2023-06-13T11:20:34.692Z,68.00
2023-06-13T11:23:05.222Z,69.70
2023-06-13T11:25:35.599Z,69.60
2023-06-13T11:28:03.778Z,70.60
2023-06-13T11:30:31.832Z,69.00
2023-06-13T11:33:03.685Z,70.30
2023-06-13T11:35:34.276Z,70.10
2023-06-13T11:38:08.609Z,70.90
2023-06-13T11:40:43.686Z,70.10
2023-06-13T11:43:16.584Z,70.00
2023-06-13T11:45:46.958Z,69.90
2023-06-13T11:48:24.092Z,70.50
2023-06-13T11:50:51.810Z,68.90
2023-06-13T11:53:19.790Z,69.10
2023-06-13T11:55:48.353Z,69.40
2023-06-13T11:58:17.473Z,69.70
2023-06-13T12:00:55.043Z,71.40
2023-06-13T12:03:27.887Z,70.70
2023-06-13T12:05:58.873Z,69.80
2023-06-13T12:08:26.946Z,72.80
2023-06-13T12:10:58.096Z,74.90
2023-06-13T12:13:28.752Z,74.70
2023-06-13T12:15:57.977Z,74.40
2023-06-13T12:18:31.291Z,73.20
2023-06-13T12:21:01.597Z,73.30
2023-06-13T12:23:29.298Z,72.30
2023-06-13T12:26:00.267Z,72.20
2023-06-13T12:28:31.251Z,72.50
2023-06-13T12:31:07.068Z,73.10
2023-06-13T12:33:35.947Z,73.60
2023-06-13T12:36:06.535Z,73.30
2023-06-13T12:38:34.901Z,73.30
2023-06-13T12:41:15.803Z,73.50
2023-06-13T12:43:46.573Z,74.30
2023-06-13T12:46:16.731Z,74.40
2023-06-13T12:48:47.562Z,72.80
2023-06-13T12:51:32.051Z,72.50
2023-06-13T12:54:16.776Z,72.30
2023-06-13T12:57:17.139Z,71.40
2023-06-13T12:59:48.258Z,71.40
2023-06-13T13:02:28.215Z,72.00
2023-06-13T13:05:04.491Z,72.50
2023-06-13T13:07:32.509Z,72.50
2023-06-13T13:10:02.902Z,71.50
2023-06-13T13:12:33.210Z,72.10
2023-06-13T13:15:03.456Z,71.90
2023-06-13T13:17:33.567Z,73.20
2023-06-13T13:20:05.547Z,76.60
2023-06-13T13:22:32.712Z,75.60
2023-06-13T13:25:00.723Z,79.60
2023-06-13T13:27:33.325Z,81.00
2023-06-13T13:30:01.071Z,83.10
2023-06-13T13:32:28.546Z,85.10
2023-06-13T13:34:56.099Z,86.90
2023-06-13T13:37:23.125Z,87.70
2023-06-13T13:39:51.118Z,89.00
2023-06-13T13:42:26.085Z,90.20
2023-06-13T13:44:56.698Z,90.90
2023-06-13T13:47:23.957Z,91.50
2023-06-13T13:49:58.647Z,91.70
2023-06-13T13:52:28.000Z,91.90
2023-06-13T13:54:56.722Z,91.90
2023-06-13T13:57:25.777Z,91.90
2023-06-13T13:59:57.146Z,92.00
2023-06-13T14:02:30.422Z,92.00
2023-06-13T14:04:59.787Z,91.90
2023-06-13T14:07:27.061Z,92.10
2023-06-13T14:09:55.498Z,92.10
2023-06-13T14:12:26.287Z,91.80
2023-06-13T14:14:56.323Z,92.00
2023-06-13T14:17:23.503Z,92.30
2023-06-13T14:19:52.753Z,92.40
2023-06-13T14:22:23.051Z,92.40
2023-06-13T14:24:50.107Z,92.30
2023-06-13T14:27:20.157Z,92.50
2023-06-13T14:29:48.297Z,92.60
2023-06-13T14:32:18.588Z,92.50
2023-06-13T14:34:46.784Z,92.70
2023-06-13T14:37:18.420Z,92.80
2023-06-13T14:39:46.997Z,93.00
2023-06-13T14:42:14.544Z,93.00
2023-06-13T14:44:43.910Z,92.90
2023-06-13T14:47:15.916Z,92.90
2023-06-13T14:49:43.409Z,93.10
2023-06-13T14:52:13.472Z,93.20
2023-06-13T14:54:40.603Z,93.20
2023-06-13T14:57:08.014Z,93.20
2023-06-13T14:59:36.108Z,93.30
2023-06-13T15:02:09.149Z,93.70
2023-06-13T15:04:40.439Z,93.50
2023-06-13T15:07:10.617Z,93.50
2023-06-13T15:09:39.317Z,93.50
2023-06-13T15:12:06.634Z,93.60
2023-06-13T15:14:37.181Z,93.60
2023-06-13T15:17:06.546Z,93.70
2023-06-13T15:19:35.705Z,93.50
2023-06-13T15:22:02.976Z,93.60
2023-06-13T15:24:31.090Z,93.90
2023-06-13T15:26:59.071Z,94.00
2023-06-13T15:29:29.141Z,94.00
2023-06-13T15:32:02.202Z,94.00
2023-06-13T15:34:33.164Z,94.20
2023-06-13T15:37:03.606Z,94.20
2023-06-13T15:39:32.663Z,94.20
2023-06-13T15:41:59.783Z,94.20
2023-06-13T15:44:26.843Z,94.50
2023-06-13T15:46:56.141Z,94.70
2023-06-13T15:49:24.228Z,94.60
2023-06-13T15:51:51.261Z,94.50
2023-06-13T15:54:21.272Z,94.60
2023-06-13T15:56:51.627Z,94.50
2023-06-13T15:59:20.750Z,94.40
2023-06-13T16:01:51.110Z,94.30
2023-06-13T16:04:18.258Z,94.40
2023-06-13T16:06:45.448Z,94.30
2023-06-13T16:09:12.507Z,94.40
2023-06-13T16:11:41.799Z,94.40
2023-06-13T16:14:11.887Z,94.80
2023-06-13T16:16:40.963Z,94.90
2023-06-13T16:19:11.691Z,95.00
2023-06-13T16:21:39.833Z,95.20
2023-06-13T16:24:09.213Z,95.30
2023-06-13T16:26:42.483Z,95.60
2023-06-13T16:29:09.484Z,95.80
2023-06-13T16:31:38.605Z,96.00
2023-06-13T16:34:05.658Z,96.00
2023-06-13T16:36:32.857Z,96.00
2023-06-13T16:39:04.974Z,96.00
2023-06-13T16:41:35.074Z,96.30
2023-06-13T16:44:05.264Z,96.60
2023-06-13T16:46:34.311Z,96.70
2023-06-13T16:49:01.453Z,96.90
2023-06-13T16:51:31.516Z,97.00
2023-06-13T16:53:59.658Z,97.10
2023-06-13T16:56:27.680Z,97.10
2023-06-13T16:58:56.689Z,97.30
2023-06-13T17:01:26.903Z,97.30
2023-06-13T17:03:57.145Z,97.40
2023-06-13T17:06:26.300Z,97.50
2023-06-13T17:08:53.528Z,97.60
2023-06-13T17:11:20.624Z,97.60
2023-06-13T17:13:49.151Z,97.70
2023-06-13T17:16:20.010Z,97.80
2023-06-13T17:18:50.263Z,98.20
2023-06-13T17:21:23.263Z,97.90
2023-06-13T17:23:52.426Z,97.90
2023-06-13T17:26:19.476Z,97.90
2023-06-13T17:28:46.644Z,98.00
2023-06-13T17:31:15.033Z,98.00
2023-06-13T17:33:50.637Z,98.00
2023-06-13T17:36:24.783Z,98.10
2023-06-13T17:38:54.839Z,98.20
2023-06-13T17:41:22.195Z,98.30
2023-06-13T17:43:51.395Z,98.50
2023-06-13T17:46:19.751Z,98.60
2023-06-13T17:48:46.927Z,98.70
2023-06-13T17:51:16.941Z,98.70
2023-06-13T17:53:47.057Z,98.80
2023-06-13T17:56:15.121Z,98.90
2023-06-13T17:58:42.482Z,98.90
2023-06-13T18:01:12.639Z,98.80
2023-06-13T18:03:41.744Z,98.80
2023-06-13T18:06:12.796Z,98.80
2023-06-13T18:08:45.601Z,98.80
2023-06-13T18:11:12.660Z,98.80
2023-06-13T18:13:45.709Z,99.00
2023-06-13T18:16:13.155Z,99.10
2023-06-13T18:18:42.978Z,99.40
2023-06-13T18:21:11.817Z,99.80
2023-06-13T18:23:43.795Z,99.90
2023-06-13T18:26:13.949Z,99.90
2023-06-13T18:28:42.945Z,99.90
2023-06-13T18:31:10.204Z,99.90
2023-06-13T18:33:41.089Z,99.90
2023-06-13T18:36:09.189Z,99.90
2023-06-13T18:38:37.260Z,99.90
2023-06-13T18:41:04.481Z,99.90
2023-06-13T18:43:34.718Z,99.90
2023-06-13T18:46:05.224Z,99.90
2023-06-13T18:48:34.109Z,99.90
2023-06-13T18:51:01.642Z,99.90
2023-06-13T18:53:28.721Z,99.90
2023-06-13T18:55:58.173Z,99.90
2023-06-13T18:58:28.406Z,99.90
2023-06-13T19:00:57.195Z,99.90
2023-06-13T19:03:30.706Z,99.90
2023-06-13T19:05:58.862Z,99.90
2023-06-13T19:08:27.310Z,99.90
2023-06-13T19:10:55.822Z,99.90
2023-06-13T19:13:24.075Z,99.90
2023-06-13T19:15:52.171Z,99.90
2023-06-13T19:18:20.336Z,99.90
2023-06-13T19:20:47.451Z,99.90
2023-06-13T19:23:19.380Z,99.90
2023-06-13T19:25:55.136Z,99.90
2023-06-13T19:28:25.395Z,99.90
2023-06-13T19:30:58.581Z,99.90
2023-06-13T19:33:29.265Z,99.90
2023-06-13T19:35:59.712Z,99.90
2023-06-13T19:38:33.069Z,99.90
2023-06-13T19:41:00.199Z,99.90
2023-06-13T19:43:28.638Z,99.90
2023-06-13T19:45:56.830Z,99.90
2023-06-13T19:48:25.982Z,99.90
2023-06-13T19:51:06.376Z,99.90
2023-06-13T19:53:44.745Z,99.90
2023-06-13T19:56:13.376Z,99.90
2023-06-13T19:58:43.650Z,99.90
2023-06-13T20:01:11.704Z,99.90
2023-06-13T20:03:38.838Z,99.90
2023-06-13T20:06:07.177Z,99.90
2023-06-13T20:08:37.292Z,99.90
2023-06-13T20:11:07.675Z,99.90
2023-06-13T20:13:38.627Z,99.90
2023-06-13T20:16:11.836Z,99.90
2023-06-13T20:18:42.008Z,99.90
2023-06-13T20:21:12.600Z,99.90
2023-06-13T20:23:40.758Z,99.90
2023-06-13T20:26:07.996Z,99.90
2023-06-13T20:28:35.097Z,99.90
2023-06-13T20:31:05.302Z,99.90
2023-06-13T20:33:32.216Z,99.90
2023-06-13T20:36:01.008Z,99.90
2023-06-13T20:38:29.626Z,99.90
2023-06-13T20:40:57.062Z,99.90
2023-06-13T20:43:27.208Z,99.90
2023-06-13T20:45:58.388Z,99.90
2023-06-13T20:48:29.908Z,99.90
2023-06-13T20:50:59.180Z,99.90
2023-06-13T20:53:28.454Z,99.90
2023-06-13T20:55:57.517Z,99.90
2023-06-13T20:58:24.471Z,99.90
2023-06-13T21:00:55.619Z,99.90
2023-06-13T21:03:29.347Z,99.90
2023-06-13T21:05:58.868Z,99.90
2023-06-13T21:08:32.687Z,99.90
2023-06-13T21:11:02.943Z,99.90
2023-06-13T21:13:30.167Z,99.90
2023-06-13T21:16:01.912Z,99.90
2023-06-13T21:18:31.099Z,99.90
2023-06-13T21:20:58.212Z,99.90
2023-06-13T21:23:26.940Z,99.90
2023-06-13T21:25:57.098Z,99.90
2023-06-13T21:28:27.057Z,99.90
2023-06-13T21:30:56.317Z,99.90
2023-06-13T21:33:29.392Z,99.90
2023-06-13T21:35:58.618Z,99.90
2023-06-13T21:38:29.664Z,99.90
2023-06-13T21:40:57.081Z,99.90
2023-06-13T21:43:24.294Z,99.90
2023-06-13T21:45:52.372Z,99.90
2023-06-13T21:48:20.391Z,99.90
2023-06-13T21:50:49.288Z,99.90
2023-06-13T21:53:18.301Z,99.90
2023-06-13T21:55:48.506Z,99.90
2023-06-13T21:58:20.102Z,99.90
2023-06-13T22:00:48.229Z,99.90
2023-06-13T22:03:15.321Z,99.90
2023-06-13T22:05:42.947Z,99.90
2023-06-13T22:08:14.506Z,99.90
2023-06-13T22:10:44.706Z,99.90
2023-06-13T22:13:15.632Z,99.90
2023-06-13T22:15:53.965Z,99.90
2023-06-13T22:18:22.851Z,99.90
2023-06-13T22:20:51.960Z,99.90
2023-06-13T22:23:22.362Z,99.90
2023-06-13T22:25:49.793Z,99.90
2023-06-13T22:28:31.885Z,99.90
2023-06-13T22:31:04.310Z,99.90
2023-06-13T22:33:34.334Z,99.90
2023-06-13T22:36:02.323Z,99.90
2023-06-13T22:38:29.816Z,99.90
2023-06-13T22:40:56.891Z,99.90
2023-06-13T22:43:26.082Z,99.90
2023-06-13T22:45:54.203Z,99.90
2023-06-13T22:48:25.520Z,99.90
2023-06-13T22:50:56.820Z,99.90
2023-06-13T22:53:25.871Z,99.90
2023-06-13T22:55:55.930Z,99.90
2023-06-13T22:58:24.932Z,99.90
2023-06-13T23:00:52.661Z,99.90
2023-06-13T23:03:23.051Z,99.90
2023-06-13T23:05:53.775Z,99.90
2023-06-13T23:08:24.070Z,99.90
2023-06-13T23:10:52.933Z,99.90
2023-06-13T23:13:20.963Z,99.90
2023-06-13T23:15:51.269Z,99.90
2023-06-13T23:18:22.165Z,99.90
2023-06-13T23:20:51.430Z,99.90
2023-06-13T23:23:21.797Z,99.90
2023-06-13T23:25:50.446Z,99.90
2023-06-13T23:28:18.777Z,99.90
2023-06-13T23:30:46.435Z,99.90
2023-06-13T23:33:13.540Z,99.90
2023-06-13T23:35:40.534Z,99.90
2023-06-13T23:38:10.080Z,99.90
2023-06-13T23:40:37.225Z,99.90
2023-06-13T23:43:07.659Z,99.90
2023-06-13T23:45:35.014Z,99.90
2023-06-13T23:48:07.442Z,99.90
2023-06-13T23:50:36.982Z,99.90
2023-06-13T23:53:06.542Z,99.90
2023-06-13T23:55:40.960Z,99.90
2023-06-13T23:58:12.333Z,99.90
